sensor_id;sensor_type;location;lat;lon;timestamp;P1;durP1;ratioP1;P2;durP2;ratioP2
35667;SDS011;22158;59.280;17.806;2024-02-16T00:01:59;30.13;;;12.55;;
35667;SDS011;22158;59.280;17.806;2024-02-16T00:04:26;85.13;;;15.20;;
35667;SDS011;22158;59.280;17.806;2024-02-16T00:06:52;35.47;;;10.15;;
35667;SDS011;22158;59.280;17.806;2024-02-16T00:09:18;36.00;;;10.85;;
35667;SDS011;22158;59.280;17.806;2024-02-16T00:11:43;55.97;;;13.15;;
35667;SDS011;22158;59.280;17.806;2024-02-16T00:14:10;34.88;;;10.55;;
35667;SDS011;22158;59.280;17.806;2024-02-16T00:16:35;43.83;;;13.35;;
35667;SDS011;22158;59.280;17.806;2024-02-16T00:19:01;27.10;;;10.02;;
35667;SDS011;22158;59.280;17.806;2024-02-16T00:21:27;24.98;;;9.85;;
35667;SDS011;22158;59.280;17.806;2024-02-16T00:23:52;29.08;;;9.75;;
35667;SDS011;22158;59.280;17.806;2024-02-16T00:26:18;39.08;;;11.82;;
35667;SDS011;22158;59.280;17.806;2024-02-16T00:28:44;33.97;;;10.50;;
35667;SDS011;22158;59.280;17.806;2024-02-16T00:31:10;28.10;;;9.95;;
35667;SDS011;22158;59.280;17.806;2024-02-16T00:33:35;32.08;;;11.25;;
35667;SDS011;22158;59.280;17.806;2024-02-16T00:36:01;24.77;;;9.23;;
35667;SDS011;22158;59.280;17.806;2024-02-16T00:38:27;36.55;;;11.23;;
35667;SDS011;22158;59.280;17.806;2024-02-16T00:40:52;39.45;;;11.07;;
35667;SDS011;22158;59.280;17.806;2024-02-16T00:43:18;39.42;;;11.07;;
35667;SDS011;22158;59.280;17.806;2024-02-16T00:45:44;32.92;;;11.20;;
35667;SDS011;22158;59.280;17.806;2024-02-16T00:48:10;58.40;;;11.45;;
35667;SDS011;22158;59.280;17.806;2024-02-16T00:50:36;27.73;;;11.27;;
35667;SDS011;22158;59.280;17.806;2024-02-16T00:53:02;32.00;;;10.00;;
35667;SDS011;22158;59.280;17.806;2024-02-16T00:55:28;48.75;;;11.93;;
35667;SDS011;22158;59.280;17.806;2024-02-16T00:57:53;25.15;;;9.40;;
35667;SDS011;22158;59.280;17.806;2024-02-16T01:00:19;39.55;;;10.82;;
35667;SDS011;22158;59.280;17.806;2024-02-16T01:02:45;54.97;;;11.73;;
35667;SDS011;22158;59.280;17.806;2024-02-16T01:05:10;24.05;;;10.13;;
35667;SDS011;22158;59.280;17.806;2024-02-16T01:07:36;48.90;;;12.77;;
35667;SDS011;22158;59.280;17.806;2024-02-16T01:10:02;44.67;;;11.18;;
35667;SDS011;22158;59.280;17.806;2024-02-16T01:12:30;35.80;;;9.55;;
35667;SDS011;22158;59.280;17.806;2024-02-16T01:14:56;28.58;;;9.57;;
35667;SDS011;22158;59.280;17.806;2024-02-16T01:17:22;41.85;;;9.55;;
35667;SDS011;22158;59.280;17.806;2024-02-16T01:19:48;31.35;;;9.63;;
35667;SDS011;22158;59.280;17.806;2024-02-16T01:22:13;20.55;;;9.07;;
35667;SDS011;22158;59.280;17.806;2024-02-16T01:24:39;24.15;;;8.52;;
35667;SDS011;22158;59.280;17.806;2024-02-16T01:27:05;29.08;;;8.43;;
35667;SDS011;22158;59.280;17.806;2024-02-16T01:29:30;36.80;;;9.40;;
35667;SDS011;22158;59.280;17.806;2024-02-16T01:31:57;45.97;;;9.68;;
35667;SDS011;22158;59.280;17.806;2024-02-16T01:34:23;34.30;;;9.43;;
35667;SDS011;22158;59.280;17.806;2024-02-16T01:36:49;24.83;;;7.97;;
35667;SDS011;22158;59.280;17.806;2024-02-16T01:39:14;27.00;;;8.32;;
35667;SDS011;22158;59.280;17.806;2024-02-16T01:41:40;26.83;;;8.30;;
35667;SDS011;22158;59.280;17.806;2024-02-16T01:44:06;21.67;;;8.85;;
35667;SDS011;22158;59.280;17.806;2024-02-16T01:46:33;15.63;;;7.18;;
35667;SDS011;22158;59.280;17.806;2024-02-16T01:48:59;22.25;;;8.00;;
35667;SDS011;22158;59.280;17.806;2024-02-16T01:51:25;18.05;;;8.45;;
35667;SDS011;22158;59.280;17.806;2024-02-16T01:53:51;18.83;;;8.00;;
35667;SDS011;22158;59.280;17.806;2024-02-16T01:56:17;18.40;;;8.02;;
35667;SDS011;22158;59.280;17.806;2024-02-16T01:58:46;19.48;;;7.55;;
35667;SDS011;22158;59.280;17.806;2024-02-16T02:01:12;16.73;;;7.97;;
35667;SDS011;22158;59.280;17.806;2024-02-16T02:03:37;15.88;;;6.90;;
35667;SDS011;22158;59.280;17.806;2024-02-16T02:06:03;12.07;;;6.85;;
35667;SDS011;22158;59.280;17.806;2024-02-16T02:08:29;11.52;;;7.03;;
35667;SDS011;22158;59.280;17.806;2024-02-16T02:10:54;14.93;;;8.00;;
35667;SDS011;22158;59.280;17.806;2024-02-16T02:13:20;13.02;;;6.88;;
35667;SDS011;22158;59.280;17.806;2024-02-16T02:15:47;12.98;;;6.32;;
35667;SDS011;22158;59.280;17.806;2024-02-16T02:18:13;13.05;;;6.55;;
35667;SDS011;22158;59.280;17.806;2024-02-16T02:20:39;13.85;;;7.72;;
35667;SDS011;22158;59.280;17.806;2024-02-16T02:23:04;10.60;;;6.55;;
35667;SDS011;22158;59.280;17.806;2024-02-16T02:25:30;16.10;;;6.90;;
35667;SDS011;22158;59.280;17.806;2024-02-16T02:27:56;11.40;;;6.60;;
35667;SDS011;22158;59.280;17.806;2024-02-16T02:30:22;15.52;;;7.60;;
35667;SDS011;22158;59.280;17.806;2024-02-16T02:32:49;11.30;;;6.95;;
35667;SDS011;22158;59.280;17.806;2024-02-16T02:35:15;15.10;;;6.72;;
35667;SDS011;22158;59.280;17.806;2024-02-16T02:37:42;11.93;;;7.18;;
35667;SDS011;22158;59.280;17.806;2024-02-16T02:40:08;9.43;;;6.68;;
35667;SDS011;22158;59.280;17.806;2024-02-16T02:42:34;10.73;;;6.68;;
35667;SDS011;22158;59.280;17.806;2024-02-16T02:45:01;12.50;;;6.60;;
35667;SDS011;22158;59.280;17.806;2024-02-16T02:47:27;10.35;;;6.53;;
35667;SDS011;22158;59.280;17.806;2024-02-16T02:49:52;8.93;;;5.70;;
35667;SDS011;22158;59.280;17.806;2024-02-16T02:52:19;11.52;;;7.07;;
35667;SDS011;22158;59.280;17.806;2024-02-16T02:54:46;10.05;;;6.25;;
35667;SDS011;22158;59.280;17.806;2024-02-16T02:57:11;10.45;;;6.68;;
35667;SDS011;22158;59.280;17.806;2024-02-16T02:59:37;10.48;;;5.85;;
35667;SDS011;22158;59.280;17.806;2024-02-16T03:02:03;9.32;;;5.43;;
35667;SDS011;22158;59.280;17.806;2024-02-16T03:04:29;10.25;;;5.70;;
35667;SDS011;22158;59.280;17.806;2024-02-16T03:06:55;10.68;;;5.93;;
35667;SDS011;22158;59.280;17.806;2024-02-16T03:09:20;10.07;;;5.70;;
35667;SDS011;22158;59.280;17.806;2024-02-16T03:11:47;12.85;;;6.25;;
35667;SDS011;22158;59.280;17.806;2024-02-16T03:14:13;6.65;;;4.50;;
35667;SDS011;22158;59.280;17.806;2024-02-16T03:16:39;7.68;;;5.30;;
35667;SDS011;22158;59.280;17.806;2024-02-16T03:19:07;9.70;;;5.35;;
35667;SDS011;22158;59.280;17.806;2024-02-16T03:21:35;12.18;;;6.40;;
35667;SDS011;22158;59.280;17.806;2024-02-16T03:24:02;7.57;;;4.90;;
35667;SDS011;22158;59.280;17.806;2024-02-16T03:26:29;10.25;;;6.13;;
35667;SDS011;22158;59.280;17.806;2024-02-16T03:28:54;7.88;;;4.65;;
35667;SDS011;22158;59.280;17.806;2024-02-16T03:31:22;9.23;;;5.20;;
35667;SDS011;22158;59.280;17.806;2024-02-16T03:33:51;7.25;;;4.43;;
35667;SDS011;22158;59.280;17.806;2024-02-16T03:36:17;7.38;;;4.85;;
35667;SDS011;22158;59.280;17.806;2024-02-16T03:38:44;10.52;;;5.30;;
35667;SDS011;22158;59.280;17.806;2024-02-16T03:41:14;7.63;;;4.88;;
35667;SDS011;22158;59.280;17.806;2024-02-16T03:43:41;8.02;;;5.65;;
35667;SDS011;22158;59.280;17.806;2024-02-16T03:46:07;8.68;;;5.43;;
35667;SDS011;22158;59.280;17.806;2024-02-16T03:48:33;8.18;;;4.57;;
35667;SDS011;22158;59.280;17.806;2024-02-16T03:50:59;8.00;;;4.38;;
35667;SDS011;22158;59.280;17.806;2024-02-16T03:53:25;6.57;;;4.40;;
35667;SDS011;22158;59.280;17.806;2024-02-16T03:55:51;6.88;;;4.60;;
35667;SDS011;22158;59.280;17.806;2024-02-16T03:58:16;7.72;;;4.72;;
35667;SDS011;22158;59.280;17.806;2024-02-16T04:00:42;7.57;;;4.25;;
35667;SDS011;22158;59.280;17.806;2024-02-16T04:03:08;8.98;;;4.40;;
35667;SDS011;22158;59.280;17.806;2024-02-16T04:05:34;6.40;;;4.05;;
35667;SDS011;22158;59.280;17.806;2024-02-16T04:08:03;6.63;;;3.92;;
35667;SDS011;22158;59.280;17.806;2024-02-16T04:10:31;8.00;;;3.92;;
35667;SDS011;22158;59.280;17.806;2024-02-16T04:12:57;7.45;;;4.32;;
35667;SDS011;22158;59.280;17.806;2024-02-16T04:15:23;8.30;;;4.40;;
35667;SDS011;22158;59.280;17.806;2024-02-16T04:17:49;7.93;;;4.63;;
35667;SDS011;22158;59.280;17.806;2024-02-16T04:20:15;6.25;;;4.30;;
35667;SDS011;22158;59.280;17.806;2024-02-16T04:22:41;6.65;;;4.03;;
35667;SDS011;22158;59.280;17.806;2024-02-16T04:25:07;7.53;;;3.78;;
35667;SDS011;22158;59.280;17.806;2024-02-16T04:27:33;6.60;;;3.60;;
35667;SDS011;22158;59.280;17.806;2024-02-16T04:30:03;6.82;;;3.88;;
35667;SDS011;22158;59.280;17.806;2024-02-16T04:32:30;7.93;;;4.43;;
35667;SDS011;22158;59.280;17.806;2024-02-16T04:34:56;6.82;;;3.85;;
35667;SDS011;22158;59.280;17.806;2024-02-16T04:37:22;6.28;;;3.78;;
35667;SDS011;22158;59.280;17.806;2024-02-16T04:39:48;4.65;;;3.00;;
35667;SDS011;22158;59.280;17.806;2024-02-16T04:42:14;5.13;;;3.00;;
35667;SDS011;22158;59.280;17.806;2024-02-16T04:44:40;4.80;;;2.60;;
35667;SDS011;22158;59.280;17.806;2024-02-16T04:47:06;5.75;;;2.85;;
35667;SDS011;22158;59.280;17.806;2024-02-16T04:49:32;4.07;;;2.95;;
35667;SDS011;22158;59.280;17.806;2024-02-16T04:51:57;4.40;;;2.92;;
35667;SDS011;22158;59.280;17.806;2024-02-16T04:54:23;4.45;;;2.85;;
35667;SDS011;22158;59.280;17.806;2024-02-16T04:56:49;3.78;;;2.20;;
35667;SDS011;22158;59.280;17.806;2024-02-16T04:59:16;3.92;;;2.78;;
35667;SDS011;22158;59.280;17.806;2024-02-16T05:01:45;3.97;;;2.30;;
35667;SDS011;22158;59.280;17.806;2024-02-16T05:04:11;4.10;;;3.03;;
35667;SDS011;22158;59.280;17.806;2024-02-16T05:06:44;3.00;;;2.17;;
35667;SDS011;22158;59.280;17.806;2024-02-16T05:09:12;4.78;;;3.20;;
35667;SDS011;22158;59.280;17.806;2024-02-16T05:11:42;4.88;;;3.40;;
35667;SDS011;22158;59.280;17.806;2024-02-16T05:14:08;4.28;;;3.10;;
35667;SDS011;22158;59.280;17.806;2024-02-16T05:16:37;4.63;;;3.00;;
35667;SDS011;22158;59.280;17.806;2024-02-16T05:19:02;4.72;;;2.85;;
35667;SDS011;22158;59.280;17.806;2024-02-16T05:21:28;3.72;;;2.72;;
35667;SDS011;22158;59.280;17.806;2024-02-16T05:23:54;4.97;;;3.50;;
35667;SDS011;22158;59.280;17.806;2024-02-16T05:26:20;4.03;;;2.92;;
35667;SDS011;22158;59.280;17.806;2024-02-16T05:28:46;4.07;;;2.63;;
35667;SDS011;22158;59.280;17.806;2024-02-16T05:31:15;3.15;;;2.50;;
35667;SDS011;22158;59.280;17.806;2024-02-16T05:33:43;3.53;;;2.80;;
35667;SDS011;22158;59.280;17.806;2024-02-16T05:36:10;5.95;;;2.80;;
35667;SDS011;22158;59.280;17.806;2024-02-16T05:38:36;3.00;;;2.50;;
35667;SDS011;22158;59.280;17.806;2024-02-16T05:41:06;4.88;;;1.75;;
35667;SDS011;22158;59.280;17.806;2024-02-16T05:43:33;4.63;;;2.30;;
35667;SDS011;22158;59.280;17.806;2024-02-16T05:45:59;2.78;;;2.22;;
35667;SDS011;22158;59.280;17.806;2024-02-16T05:48:24;2.65;;;1.80;;
35667;SDS011;22158;59.280;17.806;2024-02-16T05:50:52;3.45;;;2.30;;
35667;SDS011;22158;59.280;17.806;2024-02-16T05:53:21;3.45;;;2.33;;
35667;SDS011;22158;59.280;17.806;2024-02-16T05:55:46;2.17;;;1.98;;
35667;SDS011;22158;59.280;17.806;2024-02-16T05:58:12;3.58;;;1.83;;
35667;SDS011;22158;59.280;17.806;2024-02-16T06:00:38;2.00;;;1.80;;
35667;SDS011;22158;59.280;17.806;2024-02-16T06:03:04;2.10;;;1.85;;
35667;SDS011;22158;59.280;17.806;2024-02-16T06:05:29;4.50;;;1.95;;
35667;SDS011;22158;59.280;17.806;2024-02-16T06:07:55;2.25;;;1.70;;
35667;SDS011;22158;59.280;17.806;2024-02-16T06:10:22;2.83;;;1.92;;
35667;SDS011;22158;59.280;17.806;2024-02-16T06:12:47;2.35;;;2.05;;
35667;SDS011;22158;59.280;17.806;2024-02-16T06:15:13;2.30;;;1.60;;
35667;SDS011;22158;59.280;17.806;2024-02-16T06:17:40;2.05;;;1.50;;
35667;SDS011;22158;59.280;17.806;2024-02-16T06:20:06;3.30;;;1.80;;
35667;SDS011;22158;59.280;17.806;2024-02-16T06:22:34;2.63;;;1.42;;
35667;SDS011;22158;59.280;17.806;2024-02-16T06:25:00;1.83;;;1.35;;
35667;SDS011;22158;59.280;17.806;2024-02-16T06:27:26;1.92;;;1.42;;
35667;SDS011;22158;59.280;17.806;2024-02-16T06:29:51;2.22;;;1.48;;
35667;SDS011;22158;59.280;17.806;2024-02-16T06:32:17;2.45;;;1.70;;
35667;SDS011;22158;59.280;17.806;2024-02-16T06:34:43;2.25;;;1.27;;
35667;SDS011;22158;59.280;17.806;2024-02-16T06:37:10;1.45;;;1.10;;
35667;SDS011;22158;59.280;17.806;2024-02-16T06:39:36;2.25;;;1.58;;
35667;SDS011;22158;59.280;17.806;2024-02-16T06:42:02;1.40;;;1.27;;
35667;SDS011;22158;59.280;17.806;2024-02-16T06:44:28;2.20;;;1.33;;
35667;SDS011;22158;59.280;17.806;2024-02-16T06:46:54;2.13;;;1.48;;
35667;SDS011;22158;59.280;17.806;2024-02-16T06:49:20;5.95;;;1.40;;
35667;SDS011;22158;59.280;17.806;2024-02-16T06:51:45;1.83;;;1.30;;
35667;SDS011;22158;59.280;17.806;2024-02-16T06:54:11;2.03;;;1.27;;
35667;SDS011;22158;59.280;17.806;2024-02-16T06:56:37;1.42;;;1.10;;
35667;SDS011;22158;59.280;17.806;2024-02-16T06:59:03;1.83;;;1.30;;
35667;SDS011;22158;59.280;17.806;2024-02-16T07:01:28;1.52;;;1.10;;
35667;SDS011;22158;59.280;17.806;2024-02-16T07:03:54;1.85;;;1.33;;
35667;SDS011;22158;59.280;17.806;2024-02-16T07:06:20;2.05;;;1.30;;
35667;SDS011;22158;59.280;17.806;2024-02-16T07:08:46;2.05;;;1.48;;
35667;SDS011;22158;59.280;17.806;2024-02-16T07:11:12;1.58;;;1.27;;
35667;SDS011;22158;59.280;17.806;2024-02-16T07:13:41;1.55;;;1.20;;
35667;SDS011;22158;59.280;17.806;2024-02-16T07:16:09;2.42;;;1.30;;
35667;SDS011;22158;59.280;17.806;2024-02-16T07:18:35;3.08;;;1.63;;
35667;SDS011;22158;59.280;17.806;2024-02-16T07:21:01;2.13;;;1.42;;
35667;SDS011;22158;59.280;17.806;2024-02-16T07:23:28;1.80;;;1.10;;
35667;SDS011;22158;59.280;17.806;2024-02-16T07:25:54;2.20;;;1.40;;
35667;SDS011;22158;59.280;17.806;2024-02-16T07:28:24;1.65;;;1.08;;
35667;SDS011;22158;59.280;17.806;2024-02-16T07:30:51;2.15;;;1.50;;
35667;SDS011;22158;59.280;17.806;2024-02-16T07:33:17;2.40;;;1.42;;
35667;SDS011;22158;59.280;17.806;2024-02-16T07:35:43;1.88;;;1.23;;
35667;SDS011;22158;59.280;17.806;2024-02-16T07:38:09;2.15;;;1.52;;
35667;SDS011;22158;59.280;17.806;2024-02-16T07:40:35;2.28;;;1.60;;
35667;SDS011;22158;59.280;17.806;2024-02-16T07:43:00;2.40;;;1.20;;
35667;SDS011;22158;59.280;17.806;2024-02-16T07:45:28;2.22;;;1.40;;
35667;SDS011;22158;59.280;17.806;2024-02-16T07:47:54;1.92;;;1.10;;
35667;SDS011;22158;59.280;17.806;2024-02-16T07:50:20;1.98;;;1.48;;
35667;SDS011;22158;59.280;17.806;2024-02-16T07:52:47;1.33;;;1.17;;
35667;SDS011;22158;59.280;17.806;2024-02-16T07:55:13;2.03;;;1.30;;
35667;SDS011;22158;59.280;17.806;2024-02-16T07:57:39;2.35;;;1.42;;
35667;SDS011;22158;59.280;17.806;2024-02-16T08:00:05;2.28;;;1.42;;
35667;SDS011;22158;59.280;17.806;2024-02-16T08:02:32;1.40;;;1.05;;
35667;SDS011;22158;59.280;17.806;2024-02-16T08:04:58;1.63;;;1.10;;
35667;SDS011;22158;59.280;17.806;2024-02-16T08:07:24;1.50;;;1.05;;
35667;SDS011;22158;59.280;17.806;2024-02-16T08:09:49;1.85;;;1.30;;
35667;SDS011;22158;59.280;17.806;2024-02-16T08:12:15;1.85;;;1.40;;
35667;SDS011;22158;59.280;17.806;2024-02-16T08:14:41;0.95;;;0.88;;
35667;SDS011;22158;59.280;17.806;2024-02-16T08:17:08;2.35;;;1.20;;
35667;SDS011;22158;59.280;17.806;2024-02-16T08:19:35;1.50;;;1.02;;
35667;SDS011;22158;59.280;17.806;2024-02-16T08:22:10;0.98;;;0.80;;
35667;SDS011;22158;59.280;17.806;2024-02-16T08:24:36;1.15;;;0.90;;
35667;SDS011;22158;59.280;17.806;2024-02-16T08:27:03;1.20;;;0.80;;
35667;SDS011;22158;59.280;17.806;2024-02-16T08:29:29;1.25;;;0.88;;
35667;SDS011;22158;59.280;17.806;2024-02-16T08:31:55;1.65;;;1.15;;
35667;SDS011;22158;59.280;17.806;2024-02-16T08:34:21;1.38;;;0.93;;
35667;SDS011;22158;59.280;17.806;2024-02-16T08:36:47;4.05;;;0.80;;
35667;SDS011;22158;59.280;17.806;2024-02-16T08:39:14;0.90;;;0.60;;
35667;SDS011;22158;59.280;17.806;2024-02-16T08:41:41;0.65;;;0.55;;
35667;SDS011;22158;59.280;17.806;2024-02-16T08:44:07;1.00;;;0.60;;
35667;SDS011;22158;59.280;17.806;2024-02-16T08:46:38;2.15;;;1.13;;
35667;SDS011;22158;59.280;17.806;2024-02-16T08:49:05;0.80;;;0.70;;
35667;SDS011;22158;59.280;17.806;2024-02-16T08:51:31;0.70;;;0.60;;
35667;SDS011;22158;59.280;17.806;2024-02-16T08:53:57;0.50;;;0.50;;
35667;SDS011;22158;59.280;17.806;2024-02-16T08:56:23;1.13;;;0.52;;
35667;SDS011;22158;59.280;17.806;2024-02-16T08:58:49;0.63;;;0.63;;
35667;SDS011;22158;59.280;17.806;2024-02-16T09:01:14;0.60;;;0.60;;
35667;SDS011;22158;59.280;17.806;2024-02-16T09:03:41;0.50;;;0.50;;
35667;SDS011;22158;59.280;17.806;2024-02-16T09:06:07;0.60;;;0.40;;
35667;SDS011;22158;59.280;17.806;2024-02-16T09:08:33;0.73;;;0.57;;
35667;SDS011;22158;59.280;17.806;2024-02-16T09:11:03;0.63;;;0.52;;
35667;SDS011;22158;59.280;17.806;2024-02-16T09:13:33;0.90;;;0.80;;
35667;SDS011;22158;59.280;17.806;2024-02-16T09:16:00;0.80;;;0.60;;
35667;SDS011;22158;59.280;17.806;2024-02-16T09:18:26;0.55;;;0.55;;
35667;SDS011;22158;59.280;17.806;2024-02-16T09:20:52;0.90;;;0.63;;
35667;SDS011;22158;59.280;17.806;2024-02-16T09:23:18;0.85;;;0.70;;
35667;SDS011;22158;59.280;17.806;2024-02-16T09:25:43;1.27;;;0.70;;
35667;SDS011;22158;59.280;17.806;2024-02-16T09:28:11;0.90;;;0.75;;
35667;SDS011;22158;59.280;17.806;2024-02-16T09:30:37;0.63;;;0.63;;
35667;SDS011;22158;59.280;17.806;2024-02-16T09:33:03;1.15;;;0.77;;
35667;SDS011;22158;59.280;17.806;2024-02-16T09:35:29;0.77;;;0.77;;
35667;SDS011;22158;59.280;17.806;2024-02-16T09:37:55;1.85;;;0.85;;
35667;SDS011;22158;59.280;17.806;2024-02-16T09:40:22;2.90;;;1.00;;
35667;SDS011;22158;59.280;17.806;2024-02-16T09:42:48;2.63;;;1.15;;
35667;SDS011;22158;59.280;17.806;2024-02-16T09:45:17;0.95;;;0.73;;
35667;SDS011;22158;59.280;17.806;2024-02-16T09:47:43;2.65;;;1.55;;
35667;SDS011;22158;59.280;17.806;2024-02-16T09:50:12;2.45;;;1.08;;
35667;SDS011;22158;59.280;17.806;2024-02-16T09:52:39;2.30;;;1.52;;
35667;SDS011;22158;59.280;17.806;2024-02-16T09:55:15;0.98;;;0.80;;
35667;SDS011;22158;59.280;17.806;2024-02-16T09:57:42;1.40;;;0.90;;
35667;SDS011;22158;59.280;17.806;2024-02-16T10:00:08;0.90;;;0.80;;
35667;SDS011;22158;59.280;17.806;2024-02-16T10:02:42;0.52;;;0.52;;
35667;SDS011;22158;59.280;17.806;2024-02-16T10:07:40;0.60;;;0.55;;
35667;SDS011;22158;59.280;17.806;2024-02-16T10:10:19;1.15;;;0.90;;
35667;SDS011;22158;59.280;17.806;2024-02-16T10:12:46;0.55;;;0.55;;
35667;SDS011;22158;59.280;17.806;2024-02-16T10:15:11;1.42;;;0.80;;
35667;SDS011;22158;59.280;17.806;2024-02-16T10:17:43;1.25;;;0.82;;
35667;SDS011;22158;59.280;17.806;2024-02-16T10:20:09;1.25;;;0.80;;
35667;SDS011;22158;59.280;17.806;2024-02-16T10:22:36;1.55;;;0.98;;
35667;SDS011;22158;59.280;17.806;2024-02-16T10:25:08;1.02;;;0.82;;
35667;SDS011;22158;59.280;17.806;2024-02-16T10:27:38;1.10;;;0.73;;
35667;SDS011;22158;59.280;17.806;2024-02-16T10:30:05;1.60;;;0.90;;
35667;SDS011;22158;59.280;17.806;2024-02-16T10:32:37;0.77;;;0.70;;
35667;SDS011;22158;59.280;17.806;2024-02-16T10:35:06;0.80;;;0.60;;
35667;SDS011;22158;59.280;17.806;2024-02-16T10:37:33;0.80;;;0.70;;
35667;SDS011;22158;59.280;17.806;2024-02-16T10:40:00;1.48;;;1.05;;
35667;SDS011;22158;59.280;17.806;2024-02-16T10:42:29;0.70;;;0.52;;
35667;SDS011;22158;59.280;17.806;2024-02-16T10:44:55;1.08;;;0.77;;
35667;SDS011;22158;59.280;17.806;2024-02-16T10:47:22;1.38;;;0.63;;
35667;SDS011;22158;59.280;17.806;2024-02-16T10:49:48;0.73;;;0.60;;
35667;SDS011;22158;59.280;17.806;2024-02-16T10:52:14;0.80;;;0.60;;
35667;SDS011;22158;59.280;17.806;2024-02-16T10:54:40;1.00;;;0.90;;
35667;SDS011;22158;59.280;17.806;2024-02-16T10:57:08;0.90;;;0.70;;
35667;SDS011;22158;59.280;17.806;2024-02-16T10:59:40;0.90;;;0.82;;
35667;SDS011;22158;59.280;17.806;2024-02-16T11:02:08;3.85;;;1.10;;
35667;SDS011;22158;59.280;17.806;2024-02-16T11:04:38;1.52;;;1.00;;
35667;SDS011;22158;59.280;17.806;2024-02-16T11:07:11;3.08;;;1.05;;
35667;SDS011;22158;59.280;17.806;2024-02-16T11:09:39;1.20;;;1.00;;
35667;SDS011;22158;59.280;17.806;2024-02-16T11:12:06;3.15;;;1.15;;
35667;SDS011;22158;59.280;17.806;2024-02-16T11:17:16;1.25;;;1.10;;
35667;SDS011;22158;59.280;17.806;2024-02-16T11:22:16;3.13;;;1.42;;
35667;SDS011;22158;59.280;17.806;2024-02-16T11:24:46;1.67;;;1.10;;
35667;SDS011;22158;59.280;17.806;2024-02-16T11:27:13;2.17;;;1.30;;
35667;SDS011;22158;59.280;17.806;2024-02-16T11:29:47;3.83;;;2.08;;
35667;SDS011;22158;59.280;17.806;2024-02-16T11:32:13;3.15;;;1.30;;
35667;SDS011;22158;59.280;17.806;2024-02-16T11:34:39;2.80;;;1.30;;
35667;SDS011;22158;59.280;17.806;2024-02-16T11:37:05;2.90;;;1.40;;
35667;SDS011;22158;59.280;17.806;2024-02-16T11:39:31;1.35;;;1.00;;
35667;SDS011;22158;59.280;17.806;2024-02-16T11:44:32;2.97;;;0.90;;
35667;SDS011;22158;59.280;17.806;2024-02-16T11:46:59;1.65;;;1.40;;
35667;SDS011;22158;59.280;17.806;2024-02-16T11:49:26;1.95;;;1.10;;
35667;SDS011;22158;59.280;17.806;2024-02-16T11:51:53;1.13;;;0.90;;
35667;SDS011;22158;59.280;17.806;2024-02-16T11:54:19;1.55;;;0.98;;
35667;SDS011;22158;59.280;17.806;2024-02-16T11:56:48;1.55;;;1.00;;
35667;SDS011;22158;59.280;17.806;2024-02-16T11:59:18;1.10;;;0.80;;
35667;SDS011;22158;59.280;17.806;2024-02-16T12:01:51;2.13;;;1.20;;
35667;SDS011;22158;59.280;17.806;2024-02-16T12:04:21;1.15;;;0.90;;
35667;SDS011;22158;59.280;17.806;2024-02-16T12:06:57;1.30;;;0.93;;
35667;SDS011;22158;59.280;17.806;2024-02-16T12:09:24;1.33;;;0.70;;
35667;SDS011;22158;59.280;17.806;2024-02-16T12:11:51;1.10;;;1.00;;
35667;SDS011;22158;59.280;17.806;2024-02-16T12:14:18;3.72;;;1.00;;
35667;SDS011;22158;59.280;17.806;2024-02-16T12:16:49;1.17;;;0.80;;
35667;SDS011;22158;59.280;17.806;2024-02-16T12:19:16;1.50;;;0.90;;
35667;SDS011;22158;59.280;17.806;2024-02-16T12:24:19;0.88;;;0.70;;
35667;SDS011;22158;59.280;17.806;2024-02-16T12:26:45;0.90;;;0.70;;
35667;SDS011;22158;59.280;17.806;2024-02-16T12:29:11;1.02;;;0.65;;
35667;SDS011;22158;59.280;17.806;2024-02-16T12:31:39;2.65;;;1.02;;
35667;SDS011;22158;59.280;17.806;2024-02-16T12:34:06;1.70;;;0.88;;
35667;SDS011;22158;59.280;17.806;2024-02-16T12:36:33;2.00;;;1.10;;
35667;SDS011;22158;59.280;17.806;2024-02-16T12:38:59;1.95;;;1.15;;
35667;SDS011;22158;59.280;17.806;2024-02-16T12:41:25;1.95;;;1.10;;
35667;SDS011;22158;59.280;17.806;2024-02-16T12:43:51;1.77;;;0.98;;
35667;SDS011;22158;59.280;17.806;2024-02-16T12:46:19;1.50;;;1.00;;
35667;SDS011;22158;59.280;17.806;2024-02-16T12:48:44;2.40;;;1.00;;
35667;SDS011;22158;59.280;17.806;2024-02-16T12:51:10;1.25;;;0.95;;
35667;SDS011;22158;59.280;17.806;2024-02-16T12:53:36;2.03;;;0.60;;
35667;SDS011;22158;59.280;17.806;2024-02-16T12:56:08;1.13;;;1.02;;
35667;SDS011;22158;59.280;17.806;2024-02-16T12:58:35;1.23;;;0.93;;
35667;SDS011;22158;59.280;17.806;2024-02-16T13:01:07;1.83;;;1.65;;
35667;SDS011;22158;59.280;17.806;2024-02-16T13:03:36;1.33;;;0.90;;
35667;SDS011;22158;59.280;17.806;2024-02-16T13:06:03;1.77;;;0.90;;
35667;SDS011;22158;59.280;17.806;2024-02-16T13:08:29;1.35;;;0.98;;
35667;SDS011;22158;59.280;17.806;2024-02-16T13:10:58;1.10;;;0.80;;
35667;SDS011;22158;59.280;17.806;2024-02-16T13:13:24;1.13;;;0.73;;
35667;SDS011;22158;59.280;17.806;2024-02-16T13:15:50;1.05;;;0.85;;
35667;SDS011;22158;59.280;17.806;2024-02-16T13:18:15;1.33;;;0.90;;
35667;SDS011;22158;59.280;17.806;2024-02-16T13:20:42;1.25;;;0.80;;
35667;SDS011;22158;59.280;17.806;2024-02-16T13:23:09;4.28;;;0.80;;
35667;SDS011;22158;59.280;17.806;2024-02-16T13:25:35;0.70;;;0.70;;
35667;SDS011;22158;59.280;17.806;2024-02-16T13:28:01;3.60;;;0.80;;
35667;SDS011;22158;59.280;17.806;2024-02-16T13:30:27;3.33;;;0.93;;
35667;SDS011;22158;59.280;17.806;2024-02-16T13:32:53;0.70;;;0.70;;
35667;SDS011;22158;59.280;17.806;2024-02-16T13:35:19;0.85;;;0.60;;
35667;SDS011;22158;59.280;17.806;2024-02-16T13:37:45;1.85;;;0.60;;
35667;SDS011;22158;59.280;17.806;2024-02-16T13:40:11;0.80;;;0.70;;
35667;SDS011;22158;59.280;17.806;2024-02-16T13:42:39;0.90;;;0.73;;
35667;SDS011;22158;59.280;17.806;2024-02-16T13:45:06;1.27;;;0.80;;
35667;SDS011;22158;59.280;17.806;2024-02-16T13:47:36;0.70;;;0.60;;
35667;SDS011;22158;59.280;17.806;2024-02-16T13:50:04;0.68;;;0.60;;
35667;SDS011;22158;59.280;17.806;2024-02-16T13:52:34;0.57;;;0.57;;
35667;SDS011;22158;59.280;17.806;2024-02-16T13:55:00;0.50;;;0.50;;
35667;SDS011;22158;59.280;17.806;2024-02-16T13:57:26;0.63;;;0.60;;
35667;SDS011;22158;59.280;17.806;2024-02-16T13:59:51;1.02;;;0.93;;
35667;SDS011;22158;59.280;17.806;2024-02-16T14:02:18;0.93;;;0.80;;
35667;SDS011;22158;59.280;17.806;2024-02-16T14:04:44;1.60;;;0.80;;
35667;SDS011;22158;59.280;17.806;2024-02-16T14:07:11;0.85;;;0.60;;
35667;SDS011;22158;59.280;17.806;2024-02-16T14:09:37;2.70;;;0.73;;
35667;SDS011;22158;59.280;17.806;2024-02-16T14:12:04;2.67;;;0.70;;
35667;SDS011;22158;59.280;17.806;2024-02-16T14:14:29;0.73;;;0.73;;
35667;SDS011;22158;59.280;17.806;2024-02-16T14:16:55;0.95;;;0.65;;
35667;SDS011;22158;59.280;17.806;2024-02-16T14:19:21;0.65;;;0.65;;
35667;SDS011;22158;59.280;17.806;2024-02-16T14:21:47;1.02;;;0.82;;
35667;SDS011;22158;59.280;17.806;2024-02-16T14:24:13;0.77;;;0.57;;
35667;SDS011;22158;59.280;17.806;2024-02-16T14:26:39;0.77;;;0.77;;
35667;SDS011;22158;59.280;17.806;2024-02-16T14:29:05;1.15;;;0.80;;
35667;SDS011;22158;59.280;17.806;2024-02-16T14:31:33;2.05;;;0.60;;
35667;SDS011;22158;59.280;17.806;2024-02-16T14:34:00;0.90;;;0.60;;
35667;SDS011;22158;59.280;17.806;2024-02-16T14:36:25;1.30;;;0.77;;
35667;SDS011;22158;59.280;17.806;2024-02-16T14:38:51;2.38;;;0.70;;
35667;SDS011;22158;59.280;17.806;2024-02-16T14:41:17;1.25;;;0.90;;